Time;durP1;ratioP1;P1;durP2;ratioP2;P2;SDS_P1;SDS_P2;PMS_P1;PMS_P2;Temp;Humidity;BMP_temperature;BMP_pressure;BME280_temperature;BME280_humidity;BME280_pressure;Samples;Min_cycle;Max_cycle;Signal;HPM_P1;HPM_P2
2021/03/02 00:01:39;;;;;;;50.08;27.52;;;;;;;;;;5059545;28;20270;-74
2021/03/02 00:04:05;;;;;;;50.45;27.70;;;;;;;;;;5047154;28;20218;-74
2021/03/02 00:06:31;;;;;;;46.40;28.13;;;;;;;;;;5069360;28;20188;-74
2021/03/02 00:08:57;;;;;;;47.78;27.70;;;;;;;;;;5050710;28;20518;-75
2021/03/02 00:11:25;;;;;;;49.03;28.40;;;;;;;;;;5046219;28;20185;-75
2021/03/02 00:13:51;;;;;;;50.90;31.52;;;;;;;;;;5041772;28;20307;-76
2021/03/02 00:16:21;;;;;;;50.90;32.10;;;;;;;;;;5049388;28;20248;-75
2021/03/02 00:18:52;;;;;;;49.80;30.15;;;;;;;;;;5050759;28;20580;-74
2021/03/02 00:21:21;;;;;;;52.42;33.63;;;;;;;;;;5049290;28;20200;-74
2021/03/02 00:23:53;;;;;;;48.72;31.08;;;;;;;;;;5048843;28;20573;-74
2021/03/02 00:26:20;;;;;;;51.45;33.40;;;;;;;;;;5047439;28;20668;-74
2021/03/02 00:28:50;;;;;;;46.53;30.88;;;;;;;;;;5051107;28;20212;-75
2021/03/02 00:31:16;;;;;;;49.45;33.22;;;;;;;;;;5049002;28;20192;-74
2021/03/02 00:33:42;;;;;;;48.88;33.40;;;;;;;;;;5048738;28;20220;-76
2021/03/02 01:03:41;;;;;;;51.67;34.05;;;;;;;;;;5051542;28;20251;-74
2021/03/02 01:06:07;;;;;;;49.55;34.60;;;;;;;;;;5059359;28;20246;-75
2021/03/02 01:08:33;;;;;;;44.95;32.30;;;;;;;;;;5072563;28;20644;-75
2021/03/02 01:10:59;;;;;;;50.20;32.30;;;;;;;;;;5072684;28;20567;-75
2021/03/02 01:13:25;;;;;;;47.13;31.75;;;;;;;;;;5071935;28;20196;-76
2021/03/02 01:15:51;;;;;;;51.15;32.75;;;;;;;;;;5055470;28;20177;-75
2021/03/02 01:18:18;;;;;;;54.22;33.72;;;;;;;;;;5052420;28;20615;-76
2021/03/02 01:20:44;;;;;;;50.70;32.17;;;;;;;;;;5052539;28;20185;-76
2021/03/02 01:23:10;;;;;;;44.97;31.63;;;;;;;;;;5051718;28;20681;-75
2021/03/02 01:25:36;;;;;;;49.30;31.23;;;;;;;;;;5052423;28;20181;-76
2021/03/02 01:28:02;;;;;;;45.13;32.42;;;;;;;;;;5050918;28;20214;-75
2021/03/02 01:30:28;;;;;;;43.58;29.80;;;;;;;;;;5052494;28;20268;-75
2021/03/02 01:32:54;;;;;;;46.10;28.92;;;;;;;;;;5051494;28;20220;-76
2021/03/02 01:35:20;;;;;;;51.40;30.42;;;;;;;;;;5052608;28;20180;-76
2021/03/02 01:37:47;;;;;;;44.97;30.95;;;;;;;;;;5052641;28;20177;-75
2021/03/02 01:40:15;;;;;;;46.00;29.13;;;;;;;;;;5055990;28;20215;-76
2021/03/02 01:42:41;;;;;;;42.30;28.02;;;;;;;;;;5056588;28;20211;-74
2021/03/02 01:45:09;;;;;;;39.25;27.35;;;;;;;;;;5075347;28;20679;-76
2021/03/02 01:47:35;;;;;;;38.70;27.83;;;;;;;;;;5075876;28;20176;-76
2021/03/02 01:50:02;;;;;;;39.53;26.45;;;;;;;;;;5075556;28;20172;-74
2021/03/02 01:52:28;;;;;;;37.80;26.90;;;;;;;;;;5075608;28;20204;-75
2021/03/02 01:54:54;;;;;;;45.83;26.35;;;;;;;;;;5075145;28;20263;-76
2021/03/02 01:57:20;;;;;;;43.20;27.95;;;;;;;;;;5075664;28;20593;-75
2021/03/02 01:59:46;;;;;;;45.17;27.63;;;;;;;;;;5061065;28;20314;-75
2021/03/02 02:02:16;;;;;;;40.45;26.40;;;;;;;;;;5055456;28;20267;-75
2021/03/02 02:04:47;;;;;;;41.28;26.65;;;;;;;;;;5054664;28;20205;-75
2021/03/02 02:07:16;;;;;;;41.58;26.20;;;;;;;;;;5055528;28;20193;-75
2021/03/02 02:09:42;;;;;;;38.00;25.00;;;;;;;;;;5055233;28;20262;-76
2021/03/02 02:12:11;;;;;;;42.25;26.02;;;;;;;;;;5055552;28;20586;-75
2021/03/02 02:14:50;;;;;;;46.72;26.13;;;;;;;;;;5054900;28;20181;-75
2021/03/02 02:17:19;;;;;;;38.55;26.45;;;;;;;;;;5074359;28;20211;-75
2021/03/02 02:19:46;;;;;;;38.60;25.70;;;;;;;;;;5064458;28;20177;-76
2021/03/02 02:22:12;;;;;;;38.72;25.40;;;;;;;;;;5054910;28;20192;-75
2021/03/02 02:24:57;;;;;;;39.67;26.20;;;;;;;;;;5054499;28;20204;-75
2021/03/02 02:27:23;;;;;;;41.25;24.90;;;;;;;;;;5055286;28;20173;-75
2021/03/02 02:29:49;;;;;;;44.58;26.52;;;;;;;;;;5054810;28;20513;-75
2021/03/02 02:32:15;;;;;;;34.65;25.30;;;;;;;;;;5055053;28;20205;-75
2021/03/02 02:34:42;;;;;;;43.65;27.10;;;;;;;;;;5054427;28;20188;-75
2021/03/02 02:37:08;;;;;;;44.63;26.25;;;;;;;;;;5054918;28;20227;-75
2021/03/02 02:39:35;;;;;;;46.85;27.42;;;;;;;;;;5070332;28;20198;-75
2021/03/02 02:42:02;;;;;;;55.00;28.88;;;;;;;;;;5065967;28;20181;-76
2021/03/02 02:44:28;;;;;;;55.30;26.92;;;;;;;;;;5054014;28;20208;-76
2021/03/02 02:46:55;;;;;;;60.63;29.70;;;;;;;;;;5054626;28;20197;-75
2021/03/02 02:49:21;;;;;;;98.15;31.67;;;;;;;;;;5054340;28;20181;-75
2021/03/02 02:51:47;;;;;;;89.38;32.55;;;;;;;;;;5054969;28;20192;-75
2021/03/02 02:54:14;;;;;;;92.40;31.95;;;;;;;;;;5053353;28;20216;-75
2021/03/02 02:56:42;;;;;;;82.85;32.38;;;;;;;;;;5064224;28;20186;-76
2021/03/02 02:59:27;;;;;;;196.02;39.00;;;;;;;;;;5072401;28;20231;-75
2021/03/02 03:01:55;;;;;;;164.48;33.83;;;;;;;;;;5052942;28;20184;-76
2021/03/02 03:04:23;;;;;;;119.30;34.92;;;;;;;;;;5053804;28;20223;-75
2021/03/02 03:06:51;;;;;;;90.65;32.20;;;;;;;;;;5054140;28;20254;-76
2021/03/02 03:09:18;;;;;;;210.60;39.42;;;;;;;;;;5054192;28;20227;-76
2021/03/02 03:11:45;;;;;;;219.52;42.42;;;;;;;;;;5054387;28;20184;-75
2021/03/02 03:14:13;;;;;;;154.82;38.95;;;;;;;;;;5053634;28;20669;-75
2021/03/02 03:16:44;;;;;;;251.13;41.85;;;;;;;;;;5068450;28;20208;-75
2021/03/02 03:19:14;;;;;;;123.72;35.92;;;;;;;;;;5067915;28;20180;-75
2021/03/02 03:21:40;;;;;;;104.43;34.65;;;;;;;;;;5053935;28;20185;-76
2021/03/02 03:24:08;;;;;;;276.60;40.25;;;;;;;;;;5061855;28;20243;-76
2021/03/02 03:26:34;;;;;;;107.53;33.10;;;;;;;;;;5073664;28;20555;-75
2021/03/02 03:29:01;;;;;;;202.35;35.53;;;;;;;;;;5067806;28;20576;-74
2021/03/02 03:31:27;;;;;;;76.85;32.17;;;;;;;;;;5053649;28;20267;-75
2021/03/02 03:33:54;;;;;;;220.18;37.33;;;;;;;;;;5053311;28;20200;-75
2021/03/02 03:36:20;;;;;;;88.90;34.50;;;;;;;;;;5053724;28;20699;-74
2021/03/02 03:38:47;;;;;;;77.07;31.83;;;;;;;;;;5052985;28;20188;-75
2021/03/02 03:41:16;;;;;;;193.65;33.78;;;;;;;;;;5067577;28;20176;-75
2021/03/02 03:43:42;;;;;;;83.45;30.85;;;;;;;;;;5053170;28;20205;-75
2021/03/02 03:46:08;;;;;;;138.95;33.70;;;;;;;;;;5053643;28;20169;-74
2021/03/02 03:48:34;;;;;;;90.88;31.08;;;;;;;;;;5053450;28;20180;-74
2021/03/02 03:51:01;;;;;;;88.15;31.63;;;;;;;;;;5053147;28;20173;-75
2021/03/02 03:53:28;;;;;;;86.45;33.00;;;;;;;;;;5062355;28;20606;-74
2021/03/02 03:55:55;;;;;;;82.05;30.20;;;;;;;;;;5073356;28;20180;-74
2021/03/02 03:58:26;;;;;;;153.05;32.85;;;;;;;;;;5073311;28;20199;-75
2021/03/02 04:00:53;;;;;;;68.07;28.45;;;;;;;;;;5056201;28;20215;-74
2021/03/02 04:03:19;;;;;;;115.53;31.77;;;;;;;;;;5063040;28;20203;-74
2021/03/02 04:05:46;;;;;;;227.02;34.83;;;;;;;;;;5072850;28;20188;-75
2021/03/02 04:08:12;;;;;;;81.63;29.52;;;;;;;;;;5073294;28;20567;-75
2021/03/02 04:10:39;;;;;;;306.88;37.42;;;;;;;;;;5064706;28;20177;-75
2021/03/02 04:13:16;;;;;;;78.63;28.80;;;;;;;;;;5052669;28;20201;-75
2021/03/02 04:15:42;;;;;;;84.68;30.05;;;;;;;;;;5052495;28;20526;-75
2021/03/02 04:18:10;;;;;;;103.88;30.40;;;;;;;;;;5053502;28;20547;-76
2021/03/02 04:20:36;;;;;;;87.00;31.25;;;;;;;;;;5051496;28;20177;-75
2021/03/02 04:23:02;;;;;;;92.18;30.25;;;;;;;;;;5052385;28;20212;-75
2021/03/02 04:25:28;;;;;;;111.93;30.98;;;;;;;;;;5053002;28;20223;-75
2021/03/02 04:27:54;;;;;;;110.85;31.05;;;;;;;;;;5053311;28;20180;-75
2021/03/02 04:30:20;;;;;;;73.32;30.88;;;;;;;;;;5052789;28;20173;-75
2021/03/02 04:32:46;;;;;;;105.38;31.33;;;;;;;;;;5052753;28;20196;-75
2021/03/02 04:35:12;;;;;;;161.27;32.75;;;;;;;;;;5052674;28;20187;-75
2021/03/02 04:37:38;;;;;;;118.93;31.27;;;;;;;;;;5052653;28;20573;-76
2021/03/02 04:40:05;;;;;;;177.25;35.00;;;;;;;;;;5071544;28;20645;-76
2021/03/02 04:42:31;;;;;;;137.63;34.40;;;;;;;;;;5058510;28;20207;-75
2021/03/02 04:44:57;;;;;;;90.43;31.02;;;;;;;;;;5052182;28;20201;-75
2021/03/02 04:47:24;;;;;;;104.07;33.90;;;;;;;;;;5052703;28;20183;-75
2021/03/02 04:49:50;;;;;;;95.25;31.58;;;;;;;;;;5052670;28;20215;-75
2021/03/02 04:52:17;;;;;;;93.85;30.95;;;;;;;;;;5052913;28;20208;-76
2021/03/02 04:54:43;;;;;;;93.88;31.52;;;;;;;;;;5039314;28;20264;-76
2021/03/02 04:57:09;;;;;;;90.28;32.63;;;;;;;;;;5052706;28;20195;-76
2021/03/02 04:59:35;;;;;;;142.10;33.55;;;;;;;;;;5052458;28;20568;-75
2021/03/02 05:02:01;;;;;;;219.45;37.53;;;;;;;;;;5065886;28;20214;-76
2021/03/02 05:04:27;;;;;;;270.52;39.28;;;;;;;;;;5052308;28;20204;-76
2021/03/02 05:06:53;;;;;;;146.23;31.05;;;;;;;;;;5052371;28;20188;-76
2021/03/02 05:09:19;;;;;;;124.97;30.92;;;;;;;;;;5052736;28;20618;-76
2021/03/02 05:11:45;;;;;;;175.38;32.35;;;;;;;;;;5053044;28;20179;-75
2021/03/02 05:14:11;;;;;;;464.35;46.53;;;;;;;;;;5055678;28;20196;-75
2021/03/02 05:16:37;;;;;;;91.22;30.25;;;;;;;;;;5070196;28;20712;-75
2021/03/02 05:19:03;;;;;;;153.45;32.30;;;;;;;;;;5071664;28;20686;-76
2021/03/02 05:21:29;;;;;;;108.28;33.15;;;;;;;;;;5056141;28;20177;-75
2021/03/02 05:23:55;;;;;;;127.68;34.63;;;;;;;;;;5055781;28;20200;-76
2021/03/02 05:26:21;;;;;;;80.82;32.70;;;;;;;;;;5056232;28;20177;-75
2021/03/02 05:31:51;;;;;;;91.22;32.03;;;;;;;;;;5053055;28;20176;-75
2021/03/02 05:34:17;;;;;;;94.88;32.53;;;;;;;;;;5055699;28;20209;-75
2021/03/02 05:36:43;;;;;;;101.07;31.75;;;;;;;;;;5056146;28;20177;-75
2021/03/02 05:39:09;;;;;;;85.97;35.10;;;;;;;;;;5068231;28;20188;-75
2021/03/02 05:41:36;;;;;;;72.55;32.70;;;;;;;;;;5070305;28;20227;-74
2021/03/02 05:44:02;;;;;;;102.80;31.77;;;;;;;;;;5055601;28;20201;-74
2021/03/02 05:46:28;;;;;;;90.15;28.80;;;;;;;;;;5055818;28;20185;-74
2021/03/02 05:48:54;;;;;;;91.88;33.83;;;;;;;;;;5056013;28;20537;-75
2021/03/02 05:51:20;;;;;;;105.53;33.60;;;;;;;;;;5060739;28;20172;-74
2021/03/02 05:53:47;;;;;;;88.53;30.58;;;;;;;;;;5063636;28;20666;-74
2021/03/02 05:56:13;;;;;;;81.13;27.17;;;;;;;;;;5055685;28;20181;-75
2021/03/02 05:58:39;;;;;;;53.35;29.50;;;;;;;;;;5055725;28;20588;-75
2021/03/02 06:01:05;;;;;;;61.40;28.58;;;;;;;;;;5055176;28;20189;-75
2021/03/02 06:03:36;;;;;;;61.65;29.50;;;;;;;;;;5065140;28;20537;-74
2021/03/02 06:06:02;;;;;;;75.70;30.15;;;;;;;;;;5075002;28;20659;-75
2021/03/02 06:08:28;;;;;;;171.32;36.13;;;;;;;;;;5075288;28;20168;-75
2021/03/02 06:10:54;;;;;;;61.95;29.25;;;;;;;;;;5075480;28;20176;-75
2021/03/02 06:13:28;;;;;;;61.25;29.67;;;;;;;;;;5073042;28;20214;-75
2021/03/02 06:15:55;;;;;;;87.30;33.08;;;;;;;;;;5058237;28;20181;-75
2021/03/02 06:18:21;;;;;;;62.03;32.17;;;;;;;;;;5055693;28;20173;-76
2021/03/02 06:20:48;;;;;;;137.30;32.92;;;;;;;;;;5055031;28;20185;-75
2021/03/02 06:23:23;;;;;;;135.98;30.25;;;;;;;;;;5054188;28;20208;-74
2021/03/02 06:25:50;;;;;;;149.30;31.70;;;;;;;;;;5055213;28;20176;-77
2021/03/02 06:28:33;;;;;;;102.68;29.35;;;;;;;;;;5054974;28;20184;-74
2021/03/02 06:30:59;;;;;;;148.52;28.92;;;;;;;;;;5044778;28;20679;-74
2021/03/02 06:33:25;;;;;;;95.35;27.15;;;;;;;;;;5054444;28;20193;-75
2021/03/02 06:35:51;;;;;;;57.72;24.40;;;;;;;;;;5054735;28;20186;-75
2021/03/02 06:38:27;;;;;;;201.25;31.10;;;;;;;;;;5057174;28;20541;-76
2021/03/02 06:40:54;;;;;;;131.88;28.23;;;;;;;;;;5073552;28;20172;-76
2021/03/02 06:43:33;;;;;;;98.72;27.45;;;;;;;;;;5054154;28;20204;-76
2021/03/02 06:46:00;;;;;;;72.20;27.23;;;;;;;;;;5054590;28;20201;-76
2021/03/02 06:48:26;;;;;;;82.90;28.77;;;;;;;;;;5054492;28;20219;-75
2021/03/02 06:50:53;;;;;;;67.95;29.13;;;;;;;;;;5054469;28;20169;-75
2021/03/02 06:53:19;;;;;;;111.43;31.05;;;;;;;;;;5054052;28;20531;-75
2021/03/02 06:55:45;;;;;;;63.78;29.55;;;;;;;;;;5054483;28;20503;-74
2021/03/02 06:58:18;;;;;;;148.05;34.33;;;;;;;;;;5054201;28;20530;-75
2021/03/02 07:00:45;;;;;;;81.90;29.45;;;;;;;;;;5054591;28;20591;-76
2021/03/02 07:03:28;;;;;;;215.65;35.53;;;;;;;;;;5054124;28;20193;-76
2021/03/02 07:05:55;;;;;;;94.13;30.88;;;;;;;;;;5054506;28;20255;-76
2021/03/02 07:08:22;;;;;;;133.00;34.45;;;;;;;;;;5053950;28;20173;-76
2021/03/02 07:10:53;;;;;;;127.63;34.03;;;;;;;;;;5054049;28;20183;-75
2021/03/02 07:13:19;;;;;;;115.60;33.72;;;;;;;;;;5053385;28;20281;-75
2021/03/02 07:15:51;;;;;;;86.05;34.13;;;;;;;;;;5057990;28;20574;-75
2021/03/02 07:18:18;;;;;;;89.68;34.00;;;;;;;;;;5053940;28;20177;-75
2021/03/02 07:20:47;;;;;;;116.75;35.28;;;;;;;;;;5053857;28;20177;-75
2021/03/02 07:23:15;;;;;;;77.15;35.70;;;;;;;;;;5053326;28;20665;-75
2021/03/02 07:25:43;;;;;;;128.85;37.20;;;;;;;;;;5053985;28;20205;-75
2021/03/02 07:28:09;;;;;;;93.65;35.20;;;;;;;;;;5053806;28;20533;-75
2021/03/02 07:30:35;;;;;;;108.13;37.17;;;;;;;;;;5051214;28;20568;-74
2021/03/02 07:33:02;;;;;;;80.80;37.05;;;;;;;;;;5051593;28;20250;-76
2021/03/02 07:35:29;;;;;;;82.10;36.45;;;;;;;;;;5060625;28;20187;-74
2021/03/02 07:38:11;;;;;;;83.32;37.03;;;;;;;;;;5065111;28;20582;-74
2021/03/02 07:41:03;;;;;;;84.65;38.17;;;;;;;;;;5053536;28;20189;-75
2021/03/02 07:43:33;;;;;;;91.65;37.67;;;;;;;;;;5041391;28;20367;-75
2021/03/02 07:46:01;;;;;;;95.38;38.85;;;;;;;;;;5048935;28;20176;-74
2021/03/02 07:48:28;;;;;;;93.05;37.83;;;;;;;;;;5042962;28;20239;-75
2021/03/02 07:51:13;;;;;;;78.00;37.80;;;;;;;;;;5046343;28;20177;-74
2021/03/02 07:53:39;;;;;;;94.50;37.72;;;;;;;;;;5048971;28;20192;-75
2021/03/02 07:56:15;;;;;;;86.43;39.42;;;;;;;;;;5058279;28;20175;-74
2021/03/02 07:58:41;;;;;;;79.95;37.45;;;;;;;;;;5049567;28;20181;-75
2021/03/02 08:01:21;;;;;;;82.40;35.65;;;;;;;;;;5049603;28;20294;-75
2021/03/02 08:03:47;;;;;;;68.15;34.60;;;;;;;;;;5054471;28;20219;-75
2021/03/02 08:06:22;;;;;;;75.35;34.40;;;;;;;;;;5069836;28;20223;-74
2021/03/02 08:08:52;;;;;;;72.63;34.70;;;;;;;;;;5068243;28;20180;-75
2021/03/02 08:11:33;;;;;;;78.00;36.35;;;;;;;;;;5059308;28;20189;-75
2021/03/02 08:14:00;;;;;;;82.88;39.13;;;;;;;;;;5049016;28;20209;-75
2021/03/02 08:16:45;;;;;;;75.47;36.33;;;;;;;;;;5057082;28;20191;-76
2021/03/02 08:19:37;;;;;;;79.25;35.35;;;;;;;;;;5031754;28;20181;-76
2021/03/02 08:22:25;;;;;;;85.22;39.05;;;;;;;;;;5047248;28;20254;-76
2021/03/02 08:25:03;;;;;;;69.45;35.22;;;;;;;;;;5049950;28;20366;-76
2021/03/02 08:27:44;;;;;;;65.20;37.05;;;;;;;;;;5060093;28;20169;-76
2021/03/02 08:30:11;;;;;;;69.70;36.80;;;;;;;;;;5046895;28;20248;-74
2021/03/02 08:32:38;;;;;;;70.57;35.30;;;;;;;;;;5049365;28;20201;-76
2021/03/02 08:35:04;;;;;;;68.57;33.95;;;;;;;;;;5048736;28;20665;-75
2021/03/02 08:37:43;;;;;;;68.68;34.40;;;;;;;;;;5056498;28;20267;-76
2021/03/02 08:40:10;;;;;;;69.88;36.17;;;;;;;;;;5047593;28;20261;-73
2021/03/02 08:42:37;;;;;;;68.15;34.03;;;;;;;;;;5036215;28;20890;-74
2021/03/02 08:45:04;;;;;;;81.70;37.60;;;;;;;;;;5046609;28;20614;-76
2021/03/02 08:47:30;;;;;;;64.85;33.90;;;;;;;;;;5046958;28;20180;-76
2021/03/02 08:49:56;;;;;;;65.18;34.30;;;;;;;;;;5060785;28;20653;-76
2021/03/02 08:52:22;;;;;;;82.13;35.97;;;;;;;;;;5053169;28;20200;-75
2021/03/02 08:54:51;;;;;;;66.03;33.05;;;;;;;;;;5052010;28;20180;-75
2021/03/02 08:57:17;;;;;;;66.32;33.08;;;;;;;;;;5052883;28;20208;-75
2021/03/02 08:59:43;;;;;;;58.72;34.65;;;;;;;;;;5051057;28;20217;-75
2021/03/02 09:02:12;;;;;;;65.43;33.25;;;;;;;;;;5052794;28;20276;-75
2021/03/02 09:04:38;;;;;;;65.35;33.50;;;;;;;;;;5057719;28;20556;-74
2021/03/02 09:07:04;;;;;;;50.10;32.05;;;;;;;;;;5071383;28;20191;-75
2021/03/02 09:09:31;;;;;;;73.75;36.10;;;;;;;;;;5070632;28;20190;-75
2021/03/02 09:11:58;;;;;;;64.57;34.95;;;;;;;;;;5062103;28;20188;-74
2021/03/02 09:14:25;;;;;;;59.28;34.10;;;;;;;;;;5051644;28;20542;-74
2021/03/02 09:16:51;;;;;;;62.88;35.45;;;;;;;;;;5055518;28;20183;-76
2021/03/02 09:19:26;;;;;;;60.50;32.00;;;;;;;;;;5062637;28;20230;-76
2021/03/02 09:21:52;;;;;;;59.05;34.47;;;;;;;;;;5050912;28;20227;-74
2021/03/02 09:24:19;;;;;;;58.42;33.58;;;;;;;;;;5058796;28;20215;-76
2021/03/02 09:26:53;;;;;;;58.63;33.67;;;;;;;;;;5046414;28;20180;-76
2021/03/02 09:29:19;;;;;;;62.85;34.25;;;;;;;;;;5056852;28;20174;-75
2021/03/02 09:31:45;;;;;;;64.85;31.92;;;;;;;;;;5053923;28;20761;-75
2021/03/02 09:34:13;;;;;;;56.13;31.75;;;;;;;;;;5053567;28;20275;-77
2021/03/02 09:36:40;;;;;;;63.72;35.13;;;;;;;;;;5059582;28;20576;-76
2021/03/02 09:39:22;;;;;;;56.47;34.22;;;;;;;;;;5055983;28;20185;-76
2021/03/02 09:41:49;;;;;;;61.45;34.25;;;;;;;;;;5051213;28;20181;-75
2021/03/02 09:44:19;;;;;;;56.78;32.40;;;;;;;;;;5052007;28;21011;-76
2021/03/02 09:46:45;;;;;;;58.50;33.45;;;;;;;;;;5057439;28;20546;-75
2021/03/02 09:49:12;;;;;;;55.97;32.92;;;;;;;;;;5054745;28;20177;-76
2021/03/02 09:51:38;;;;;;;57.30;32.80;;;;;;;;;;5055018;28;20173;-76
2021/03/02 09:54:11;;;;;;;52.47;32.28;;;;;;;;;;5046765;28;20200;-77
2021/03/02 09:56:37;;;;;;;49.95;33.45;;;;;;;;;;5055252;28;20189;-77
2021/03/02 09:59:03;;;;;;;49.00;31.95;;;;;;;;;;5050472;28;20654;-74
2021/03/02 10:01:29;;;;;;;45.67;33.17;;;;;;;;;;5071110;28;20283;-74
2021/03/02 10:03:55;;;;;;;42.00;30.57;;;;;;;;;;5052644;28;20296;-75
2021/03/02 10:06:24;;;;;;;38.50;31.27;;;;;;;;;;5052234;28;20445;-77
2021/03/02 10:08:51;;;;;;;39.30;32.53;;;;;;;;;;5054459;28;20437;-74
2021/03/02 10:11:17;;;;;;;37.47;31.23;;;;;;;;;;5063013;28;20421;-74
2021/03/02 10:13:45;;;;;;;36.77;31.93;;;;;;;;;;5055318;28;21473;-77
2021/03/02 10:16:11;;;;;;;36.70;31.50;;;;;;;;;;5060251;28;21158;-75
2021/03/02 10:18:44;;;;;;;40.20;33.47;;;;;;;;;;5067204;28;20430;-75
2021/03/02 10:21:10;;;;;;;46.33;37.27;;;;;;;;;;5071507;28;20457;-75
2021/03/02 10:23:44;;;;;;;41.73;35.77;;;;;;;;;;5053866;28;20533;-76
2021/03/02 10:26:10;;;;;;;38.67;34.27;;;;;;;;;;5059999;28;20418;-76
2021/03/02 10:28:36;;;;;;;42.10;35.47;;;;;;;;;;5052732;28;20473;-75
2021/03/02 10:31:03;;;;;;;42.80;36.93;;;;;;;;;;5057863;28;20439;-77
2021/03/02 10:33:29;;;;;;;41.23;35.10;;;;;;;;;;5052248;28;20455;-76
2021/03/02 10:35:55;;;;;;;40.63;32.80;;;;;;;;;;5059020;28;20438;-75
2021/03/02 10:38:21;;;;;;;42.23;32.70;;;;;;;;;;5055596;28;20436;-76
2021/03/02 10:40:47;;;;;;;39.90;32.57;;;;;;;;;;5052508;28;21165;-76
2021/03/02 10:43:13;;;;;;;39.30;32.60;;;;;;;;;;5051681;28;20467;-77
2021/03/02 10:45:39;;;;;;;37.93;31.00;;;;;;;;;;5054820;28;20512;-75
2021/03/02 10:48:06;;;;;;;39.30;32.33;;;;;;;;;;5053883;28;20415;-76
2021/03/02 10:50:32;;;;;;;39.40;31.47;;;;;;;;;;5039754;28;20419;-77
2021/03/02 10:52:58;;;;;;;34.67;28.40;;;;;;;;;;5056167;28;20446;-77
2021/03/02 10:55:25;;;;;;;30.30;26.97;;;;;;;;;;5061195;28;20419;-77
2021/03/02 10:57:51;;;;;;;29.03;25.87;;;;;;;;;;5055743;28;21014;-75
2021/03/02 11:00:17;;;;;;;31.53;27.87;;;;;;;;;;5060286;28;20418;-76
2021/03/02 11:02:44;;;;;;;31.80;28.13;;;;;;;;;;5056035;28;20470;-76
2021/03/02 11:05:10;;;;;;;33.00;29.50;;;;;;;;;;5050382;28;20467;-77
2021/03/02 11:07:36;;;;;;;32.40;29.07;;;;;;;;;;5056782;28;20577;-76
2021/03/02 11:10:03;;;;;;;28.37;25.17;;;;;;;;;;5046220;28;20466;-77
2021/03/02 11:12:29;;;;;;;28.80;25.90;;;;;;;;;;5051318;28;20447;-76
2021/03/02 11:14:56;;;;;;;28.70;25.60;;;;;;;;;;5049665;28;20537;-78
2021/03/02 11:17:22;;;;;;;28.67;25.57;;;;;;;;;;5050055;28;20463;-77
2021/03/02 11:19:49;;;;;;;28.07;25.30;;;;;;;;;;5064531;28;20411;-78
2021/03/02 11:22:15;;;;;;;27.63;24.93;;;;;;;;;;5056309;28;20432;-77
2021/03/02 11:24:41;;;;;;;28.00;25.17;;;;;;;;;;5041754;28;20561;-75
2021/03/02 11:27:08;;;;;;;27.97;25.03;;;;;;;;;;5043408;28;20424;-77
2021/03/02 11:29:36;;;;;;;26.93;24.30;;;;;;;;;;5041781;28;20459;-77
2021/03/02 11:32:03;;;;;;;29.30;26.30;;;;;;;;;;5048369;28;20819;-77
2021/03/02 11:34:29;;;;;;;27.63;24.83;;;;;;;;;;5050074;28;20839;-77
2021/03/02 11:36:55;;;;;;;28.57;25.57;;;;;;;;;;5056456;28;20497;-77
2021/03/02 11:39:21;;;;;;;27.77;25.00;;;;;;;;;;5049541;28;20430;-77
2021/03/02 11:41:47;;;;;;;26.70;23.20;;;;;;;;;;5055147;28;20915;-77
2021/03/02 11:44:14;;;;;;;26.60;24.00;;;;;;;;;;5062365;28;20471;-77
2021/03/02 11:46:40;;;;;;;25.97;23.47;;;;;;;;;;5049336;28;20904;-78
2021/03/02 11:49:06;;;;;;;28.77;25.80;;;;;;;;;;5053331;28;20915;-76
2021/03/02 11:51:32;;;;;;;27.60;24.77;;;;;;;;;;5052658;28;20422;-76
2021/03/02 11:53:58;;;;;;;25.97;23.40;;;;;;;;;;5056270;28;21210;-77
2021/03/02 11:56:24;;;;;;;25.43;22.87;;;;;;;;;;5054122;28;20535;-77
2021/03/02 11:58:50;;;;;;;26.40;23.73;;;;;;;;;;5050485;28;20530;-75
2021/03/02 12:01:16;;;;;;;25.93;23.43;;;;;;;;;;5060877;28;20423;-75
2021/03/02 12:03:42;;;;;;;26.27;23.57;;;;;;;;;;5055608;28;20528;-76
2021/03/02 12:06:08;;;;;;;24.93;22.33;;;;;;;;;;5049488;28;20435;-75
2021/03/02 12:08:35;;;;;;;25.37;22.87;;;;;;;;;;5047850;28;20442;-76
2021/03/02 12:11:01;;;;;;;23.77;21.57;;;;;;;;;;5049558;28;20419;-77
2021/03/02 12:13:27;;;;;;;23.67;21.47;;;;;;;;;;5056308;28;20451;-77
2021/03/02 12:15:55;;;;;;;23.20;21.10;;;;;;;;;;5055289;28;20406;-77
2021/03/02 12:18:21;;;;;;;23.40;21.07;;;;;;;;;;5065340;28;20433;-78
2021/03/02 12:20:47;;;;;;;23.23;20.93;;;;;;;;;;5050955;28;20461;-78
2021/03/02 12:23:13;;;;;;;22.17;20.03;;;;;;;;;;5052001;28;20532;-74
2021/03/02 12:25:39;;;;;;;21.33;19.23;;;;;;;;;;5052872;28;20414;-74
2021/03/02 12:28:05;;;;;;;22.53;20.43;;;;;;;;;;5064142;28;20453;-76
2021/03/02 12:30:31;;;;;;;21.03;19.00;;;;;;;;;;5052867;28;20467;-76
2021/03/02 12:32:57;;;;;;;21.63;19.50;;;;;;;;;;5045487;28;20440;-74
2021/03/02 12:35:24;;;;;;;22.53;20.53;;;;;;;;;;5059452;28;20426;-75
2021/03/02 12:37:50;;;;;;;20.60;18.50;;;;;;;;;;5048996;28;20875;-75
2021/03/02 12:40:16;;;;;;;22.53;20.60;;;;;;;;;;5058213;28;20875;-77
2021/03/02 12:42:43;;;;;;;20.20;18.37;;;;;;;;;;5059277;28;20458;-77
2021/03/02 12:45:09;;;;;;;22.07;19.80;;;;;;;;;;5054188;28;20986;-76
2021/03/02 12:47:35;;;;;;;22.93;20.80;;;;;;;;;;5053707;28;20468;-74
2021/03/02 12:50:02;;;;;;;20.93;19.10;;;;;;;;;;5064991;28;20495;-76
2021/03/02 12:52:28;;;;;;;21.80;19.73;;;;;;;;;;5051843;28;21219;-78
2021/03/02 12:54:54;;;;;;;21.20;19.30;;;;;;;;;;5042203;28;20429;-78
2021/03/02 12:57:21;;;;;;;30.87;27.93;;;;;;;;;;5054372;28;20441;-79
2021/03/02 12:59:47;;;;;;;21.43;19.53;;;;;;;;;;5054171;28;20450;-78
2021/03/02 13:02:13;;;;;;;20.30;18.50;;;;;;;;;;5052269;28;20427;-75
2021/03/02 13:04:39;;;;;;;20.43;18.43;;;;;;;;;;5048504;28;20462;-75
2021/03/02 13:07:06;;;;;;;20.67;18.67;;;;;;;;;;5060106;28;20473;-76
2021/03/02 13:09:32;;;;;;;19.37;17.67;;;;;;;;;;5059173;28;20933;-78
2021/03/02 13:11:58;;;;;;;20.27;18.57;;;;;;;;;;5050118;28;20557;-78
2021/03/02 13:14:24;;;;;;;20.43;18.67;;;;;;;;;;5048259;28;20514;-76
2021/03/02 13:16:51;;;;;;;20.00;17.93;;;;;;;;;;5055107;28;20431;-75
2021/03/02 13:19:17;;;;;;;20.90;19.00;;;;;;;;;;5052916;28;21176;-77
2021/03/02 13:21:43;;;;;;;21.30;19.40;;;;;;;;;;5052218;28;20418;-77
2021/03/02 13:24:11;;;;;;;21.17;19.17;;;;;;;;;;5056342;28;20470;-76
2021/03/02 13:26:37;;;;;;;20.47;18.77;;;;;;;;;;5055937;28;20502;-76
2021/03/02 13:29:10;;;;;;;20.57;18.57;;;;;;;;;;5050901;28;20942;-80
2021/03/02 13:31:37;;;;;;;21.10;19.17;;;;;;;;;;5051459;28;20411;-79
2021/03/02 13:34:07;;;;;;;22.40;20.33;;;;;;;;;;5050678;28;20438;-75
2021/03/02 13:36:33;;;;;;;22.50;20.10;;;;;;;;;;5062705;28;20410;-77
2021/03/02 13:39:01;;;;;;;20.93;18.90;;;;;;;;;;5065311;28;20429;-79
2021/03/02 13:41:29;;;;;;;23.27;21.07;;;;;;;;;;5058793;28;20427;-75
2021/03/02 13:43:58;;;;;;;22.10;19.70;;;;;;;;;;5057881;28;20981;-76
2021/03/02 13:46:24;;;;;;;22.63;20.40;;;;;;;;;;5056394;28;20608;-77
2021/03/02 13:48:50;;;;;;;21.90;19.90;;;;;;;;;;5057257;28;20542;-76
2021/03/02 13:51:16;;;;;;;19.83;18.03;;;;;;;;;;5055169;28;20490;-74
2021/03/02 13:53:42;;;;;;;20.60;18.70;;;;;;;;;;5062716;28;20516;-77
2021/03/02 13:56:08;;;;;;;22.37;20.23;;;;;;;;;;5067708;28;20899;-76
2021/03/02 13:58:35;;;;;;;23.13;20.77;;;;;;;;;;5054665;28;20438;-74
2021/03/02 14:01:01;;;;;;;21.93;19.57;;;;;;;;;;5052029;28;20431;-78
2021/03/02 14:03:27;;;;;;;20.93;19.07;;;;;;;;;;5054347;28;20458;-76
2021/03/02 14:05:54;;;;;;;20.90;18.80;;;;;;;;;;5060897;28;20870;-76
2021/03/02 14:08:21;;;;;;;20.00;18.17;;;;;;;;;;5046112;28;20434;-78
2021/03/02 14:10:47;;;;;;;20.70;18.80;;;;;;;;;;5063238;28;20418;-75
2021/03/02 14:13:14;;;;;;;21.67;19.60;;;;;;;;;;5051638;28;20454;-75
2021/03/02 14:15:41;;;;;;;20.97;18.77;;;;;;;;;;5070525;28;20411;-79
2021/03/02 14:18:07;;;;;;;22.47;20.07;;;;;;;;;;5057105;28;20438;-78
2021/03/02 14:20:33;;;;;;;21.20;19.10;;;;;;;;;;5042393;28;20795;-77
2021/03/02 14:23:00;;;;;;;20.40;18.50;;;;;;;;;;5048275;28;21014;-75
2021/03/02 14:25:26;;;;;;;21.50;19.50;;;;;;;;;;5050633;28;20463;-77
2021/03/02 14:27:53;;;;;;;20.70;18.73;;;;;;;;;;5050701;28;20416;-75
2021/03/02 14:30:20;;;;;;;19.97;17.97;;;;;;;;;;5051723;28;20430;-76
2021/03/02 14:32:46;;;;;;;24.60;20.33;;;;;;;;;;5056580;28;20466;-76
2021/03/02 14:35:14;;;;;;;21.93;19.77;;;;;;;;;;5051413;28;20415;-77
2021/03/02 14:37:40;;;;;;;19.97;17.83;;;;;;;;;;5057543;28;20446;-75
2021/03/02 14:40:07;;;;;;;23.93;17.27;;;;;;;;;;5059208;28;20432;-76
2021/03/02 14:42:34;;;;;;;22.43;18.60;;;;;;;;;;5060865;28;20450;-76
2021/03/02 14:45:05;;;;;;;21.80;18.77;;;;;;;;;;5070313;28;20469;-76
2021/03/02 14:47:33;;;;;;;23.63;19.43;;;;;;;;;;5053139;28;20438;-76
2021/03/02 14:50:04;;;;;;;20.60;17.30;;;;;;;;;;5051073;28;20484;-76